createdAt,value
2019-01-16T00:00:28.225Z,0.80
2019-01-16T00:01:28.180Z,1.00
2019-01-16T00:02:28.135Z,2.70
2019-01-16T00:03:28.092Z,0.80
2019-01-16T00:04:28.048Z,1.10
2019-01-16T00:05:28.005Z,1.30
2019-01-16T00:06:27.960Z,0.70
2019-01-16T00:07:27.916Z,0.70
2019-01-16T00:08:27.872Z,0.50
2019-01-16T00:09:27.822Z,1.30
2019-01-16T00:10:27.783Z,0.70
2019-01-16T00:11:27.740Z,1.30
2019-01-16T00:12:27.696Z,0.70
2019-01-16T00:13:27.653Z,1.50
2019-01-16T00:14:27.606Z,1.10
2019-01-16T00:15:27.563Z,1.10
2019-01-16T00:16:27.522Z,0.80
2019-01-16T00:17:27.489Z,1.30
2019-01-16T00:18:27.521Z,0.80
2019-01-16T00:19:27.461Z,0.90
2019-01-16T00:20:27.349Z,1.00
2019-01-16T00:21:27.298Z,0.90
2019-01-16T00:22:27.254Z,0.70
2019-01-16T00:23:27.210Z,1.30
2019-01-16T00:24:27.166Z,0.80
2019-01-16T00:25:27.120Z,1.10
2019-01-16T00:26:27.079Z,0.70
2019-01-16T00:27:27.033Z,1.10
2019-01-16T00:28:26.989Z,1.10
2019-01-16T00:29:26.944Z,0.80
2019-01-16T00:30:26.899Z,1.00
2019-01-16T00:31:26.857Z,0.50
2019-01-16T00:32:26.812Z,0.70
2019-01-16T00:33:26.769Z,0.80
2019-01-16T00:34:26.722Z,0.60
2019-01-16T00:35:26.679Z,1.20
2019-01-16T00:36:26.638Z,0.60
2019-01-16T00:37:26.590Z,1.70
2019-01-16T00:38:26.546Z,1.10
2019-01-16T00:39:26.503Z,1.30
2019-01-16T00:40:26.458Z,0.90
2019-01-16T00:41:26.413Z,0.80
2019-01-16T00:42:26.369Z,0.70
2019-01-16T00:43:26.326Z,1.10
2019-01-16T00:44:26.282Z,0.80
2019-01-16T00:45:26.237Z,0.80
2019-01-16T00:46:26.185Z,0.80
2019-01-16T00:47:26.148Z,1.20
2019-01-16T00:48:26.098Z,1.00
2019-01-16T00:49:26.059Z,0.70
2019-01-16T00:50:26.016Z,0.70
2019-01-16T00:51:25.972Z,0.70
2019-01-16T00:52:25.923Z,1.10
2019-01-16T00:53:25.882Z,0.90
2019-01-16T00:54:25.838Z,1.60
2019-01-16T00:55:25.794Z,1.10
2019-01-16T00:56:25.745Z,1.20
2019-01-16T00:57:25.705Z,1.90
2019-01-16T00:58:25.660Z,0.70
2019-01-16T00:59:25.693Z,1.00
2019-01-16T01:00:25.577Z,0.80
2019-01-16T01:01:25.529Z,1.50
2019-01-16T01:02:25.482Z,0.70
2019-01-16T01:03:25.439Z,0.90
2019-01-16T01:04:25.395Z,0.70
2019-01-16T01:05:25.351Z,0.90
2019-01-16T01:06:25.302Z,0.60
2019-01-16T01:07:25.261Z,0.70
2019-01-16T01:08:25.218Z,0.70
2019-01-16T01:09:25.172Z,0.70
2019-01-16T01:10:25.134Z,0.70
2019-01-16T01:11:25.090Z,0.70
2019-01-16T01:12:25.038Z,0.80
2019-01-16T01:13:24.997Z,0.90
2019-01-16T01:14:24.962Z,1.50
2019-01-16T01:15:24.912Z,1.00
2019-01-16T01:16:24.860Z,0.90
2019-01-16T01:17:24.818Z,0.80
2019-01-16T01:18:32.020Z,0.60
2019-01-16T01:19:24.731Z,0.70
2019-01-16T01:20:24.684Z,0.80
2019-01-16T01:21:24.643Z,0.80
2019-01-16T01:22:24.596Z,0.80
2019-01-16T01:23:24.554Z,0.80
2019-01-16T01:24:24.509Z,0.70
2019-01-16T01:25:24.470Z,0.70
2019-01-16T01:26:24.419Z,0.50
2019-01-16T01:27:24.380Z,0.60
2019-01-16T01:28:24.330Z,0.80
2019-01-16T01:29:24.287Z,1.00
2019-01-16T01:30:24.241Z,0.70
2019-01-16T01:31:24.198Z,0.70
2019-01-16T01:32:24.154Z,0.60
2019-01-16T01:33:24.115Z,0.60
2019-01-16T01:34:24.063Z,0.70
2019-01-16T01:35:24.037Z,0.70
2019-01-16T01:36:23.976Z,1.00
2019-01-16T01:37:23.931Z,0.80
2019-01-16T01:38:23.886Z,0.70
2019-01-16T01:39:23.841Z,1.00
2019-01-16T01:40:23.798Z,0.90
2019-01-16T01:41:23.752Z,0.90
2019-01-16T01:42:23.708Z,0.80
2019-01-16T01:43:23.663Z,0.90
2019-01-16T01:44:23.619Z,1.10
2019-01-16T01:45:23.573Z,0.70
2019-01-16T01:46:23.530Z,0.90
2019-01-16T01:47:23.485Z,0.80
2019-01-16T01:48:23.441Z,1.10
2019-01-16T01:49:23.405Z,0.60
2019-01-16T01:50:23.352Z,1.10
2019-01-16T01:51:23.307Z,0.80
2019-01-16T01:52:23.264Z,0.70
2019-01-16T01:53:23.221Z,1.00
2019-01-16T01:54:23.205Z,1.00
2019-01-16T01:55:23.128Z,0.80
2019-01-16T01:56:23.112Z,1.00
2019-01-16T01:57:23.040Z,0.70
2019-01-16T01:58:22.994Z,0.80
2019-01-16T01:59:22.951Z,0.60
2019-01-16T02:00:22.906Z,0.80
2019-01-16T02:01:22.863Z,0.70
2019-01-16T02:02:22.828Z,0.90
2019-01-16T02:03:22.774Z,0.60
2019-01-16T02:04:22.762Z,0.70
2019-01-16T02:05:22.686Z,0.90
2019-01-16T02:06:22.641Z,0.60
2019-01-16T02:07:22.597Z,1.30
2019-01-16T02:08:22.553Z,0.60
2019-01-16T02:09:22.506Z,0.60
2019-01-16T02:10:22.465Z,1.50
2019-01-16T02:11:22.414Z,0.80
2019-01-16T02:12:22.377Z,0.70
2019-01-16T02:13:22.332Z,1.80
2019-01-16T02:14:22.281Z,1.00
2019-01-16T02:15:22.239Z,1.50
2019-01-16T02:16:22.193Z,0.90
2019-01-16T02:17:22.149Z,1.50
2019-01-16T02:18:22.104Z,0.80
2019-01-16T02:19:22.061Z,1.30
2019-01-16T02:20:22.015Z,2.10
2019-01-16T02:21:21.972Z,0.90
2019-01-16T02:22:21.943Z,0.60
2019-01-16T02:23:21.883Z,1.30
2019-01-16T02:24:21.837Z,5.00
2019-01-16T02:25:21.790Z,1.50
2019-01-16T02:26:21.745Z,0.70
2019-01-16T02:27:21.703Z,0.70
2019-01-16T02:28:21.658Z,0.90
2019-01-16T02:29:21.612Z,0.70
2019-01-16T02:30:21.571Z,0.60
2019-01-16T02:31:21.556Z,1.00
2019-01-16T02:32:21.479Z,0.60
2019-01-16T02:33:21.436Z,2.10
2019-01-16T02:34:21.389Z,2.60
2019-01-16T02:35:21.346Z,1.30
2019-01-16T02:36:21.305Z,1.30
2019-01-16T02:37:21.255Z,0.80
2019-01-16T02:38:21.211Z,1.50
2019-01-16T02:39:21.167Z,2.20
2019-01-16T02:40:21.122Z,1.30
2019-01-16T02:41:21.073Z,1.10
2019-01-16T02:42:21.032Z,1.50
2019-01-16T02:43:20.985Z,0.80
2019-01-16T02:44:20.942Z,2.50
2019-01-16T02:45:20.897Z,2.20
2019-01-16T02:46:20.854Z,0.50
2019-01-16T02:47:20.806Z,1.80
2019-01-16T02:48:20.767Z,0.90
2019-01-16T02:49:20.718Z,0.60
2019-01-16T02:50:20.677Z,1.20
2019-01-16T02:51:20.630Z,1.80
2019-01-16T02:52:20.587Z,0.70
2019-01-16T02:53:20.538Z,1.70
2019-01-16T02:54:20.497Z,1.50
2019-01-16T02:55:20.449Z,0.90
2019-01-16T02:56:20.405Z,2.00
2019-01-16T02:57:20.357Z,0.80
2019-01-16T02:58:20.316Z,4.10
2019-01-16T02:59:20.270Z,2.40
2019-01-16T03:00:20.225Z,4.00
2019-01-16T03:01:20.181Z,7.60
2019-01-16T03:02:20.137Z,3.50
2019-01-16T03:03:20.092Z,5.80
2019-01-16T03:04:20.047Z,5.20
2019-01-16T03:05:20.005Z,4.40
2019-01-16T03:06:19.958Z,6.90
2019-01-16T03:07:20.049Z,3.80
2019-01-16T03:08:19.867Z,4.10
2019-01-16T03:09:19.827Z,7.20
2019-01-16T03:10:19.777Z,3.60
2019-01-16T03:11:19.732Z,7.60
2019-01-16T03:12:19.688Z,3.60
2019-01-16T03:13:19.643Z,2.50
2019-01-16T04:03:13.656Z,11.30
2019-01-16T04:04:13.594Z,1.90
2019-01-16T04:06:06.821Z,2.20
2019-01-16T04:07:06.741Z,3.50
2019-01-16T04:08:59.530Z,3.90
2019-01-16T04:09:59.476Z,4.90
2019-01-16T04:11:52.758Z,3.10
2019-01-16T04:12:52.663Z,26.00
2019-01-16T04:14:45.900Z,2.90
2019-01-16T04:15:45.848Z,4.00
2019-01-16T04:17:38.658Z,5.00
2019-01-16T04:18:38.587Z,4.80
2019-01-16T04:20:31.812Z,3.90
2019-01-16T04:21:31.761Z,5.30
2019-01-16T04:23:25.017Z,3.00
2019-01-16T04:24:24.942Z,2.00
2019-01-16T04:26:18.176Z,3.80
2019-01-16T04:27:18.121Z,4.00
2019-01-16T04:29:11.398Z,4.10
2019-01-16T04:30:11.301Z,6.30
2019-01-16T04:32:04.127Z,6.10
2019-01-16T04:33:04.052Z,11.20
2019-01-16T04:34:57.301Z,9.40
2019-01-16T04:35:57.235Z,5.20
2019-01-16T04:37:50.548Z,8.00
2019-01-16T04:38:50.496Z,6.30
2019-01-16T04:40:43.724Z,5.90
2019-01-16T04:41:43.676Z,3.90
2019-01-16T04:43:36.927Z,4.40
2019-01-16T04:44:36.856Z,4.50
2019-01-16T04:46:30.098Z,6.70
2019-01-16T04:47:30.068Z,2.90
2019-01-16T04:49:30.130Z,8.00
2019-01-16T04:50:23.225Z,3.50
2019-01-16T04:52:16.439Z,5.20
2019-01-16T04:53:16.391Z,4.80
2019-01-16T04:55:09.203Z,8.60
2019-01-16T04:56:09.146Z,6.70
2019-01-16T04:58:02.380Z,6.70
2019-01-16T04:59:02.308Z,2.80
2019-01-16T05:00:55.102Z,7.90
2019-01-16T05:01:55.053Z,6.60
2019-01-16T05:03:48.301Z,6.20
2019-01-16T05:04:48.225Z,4.50
2019-01-16T05:06:41.504Z,3.80
2019-01-16T05:07:41.458Z,3.90
2019-01-16T05:09:34.753Z,4.70
2019-01-16T05:10:34.634Z,4.30
2019-01-16T05:11:34.591Z,2.50
2019-01-16T05:12:34.549Z,5.60
2019-01-16T05:13:34.500Z,5.30
2019-01-16T05:14:34.455Z,4.10
2019-01-16T05:15:34.410Z,3.20
2019-01-16T05:16:34.366Z,4.10
2019-01-16T05:17:34.323Z,2.50
2019-01-16T05:18:34.278Z,3.70
2019-01-16T05:19:38.704Z,3.90
2019-01-16T05:20:34.196Z,4.40
2019-01-16T05:21:34.143Z,4.70
2019-01-16T05:22:34.103Z,3.10
2019-01-16T05:23:34.054Z,2.60
2019-01-16T05:24:34.011Z,3.60
2019-01-16T05:25:33.968Z,4.40
2019-01-16T05:26:33.921Z,3.90
2019-01-16T05:27:33.879Z,3.10
2019-01-16T05:28:33.837Z,2.50
2019-01-16T05:29:33.792Z,2.60
2019-01-16T05:30:33.746Z,2.50
2019-01-16T05:31:35.614Z,2.60
2019-01-16T05:32:33.654Z,3.50
2019-01-16T05:33:33.650Z,3.40
2019-01-16T05:34:33.568Z,2.20
2019-01-16T05:35:33.520Z,2.90
2019-01-16T05:36:33.477Z,2.40
2019-01-16T05:37:33.434Z,2.90
2019-01-16T05:38:33.399Z,3.50
2019-01-16T05:39:33.348Z,2.40
2019-01-16T05:40:33.300Z,3.60
2019-01-16T05:41:33.319Z,3.20
2019-01-16T05:42:33.214Z,3.00
2019-01-16T05:43:33.168Z,2.20
2019-01-16T05:44:33.125Z,1.90
2019-01-16T05:45:33.087Z,3.80
2019-01-16T05:46:33.039Z,2.00
2019-01-16T05:47:32.996Z,3.00
2019-01-16T05:48:32.950Z,1.90
2019-01-16T05:49:32.905Z,3.40
2019-01-16T05:50:32.863Z,2.30
2019-01-16T05:51:32.825Z,2.00
2019-01-16T05:52:32.776Z,4.10
2019-01-16T05:53:32.722Z,2.50
2019-01-16T05:54:32.686Z,4.30
2019-01-16T05:55:32.633Z,2.70
2019-01-16T05:56:32.600Z,1.70
2019-01-16T05:57:32.547Z,2.40
2019-01-16T05:58:32.508Z,2.60
2019-01-16T05:59:32.458Z,1.60
2019-01-16T06:00:32.415Z,1.90
2019-01-16T06:01:32.378Z,1.80
2019-01-16T06:02:32.329Z,1.60
2019-01-16T06:03:32.282Z,2.00
2019-01-16T06:04:32.233Z,2.80
2019-01-16T06:05:32.190Z,1.30
2019-01-16T06:06:32.148Z,3.00
2019-01-16T06:07:32.106Z,2.50
2019-01-16T06:08:32.069Z,3.50
2019-01-16T06:09:32.016Z,1.50
2019-01-16T06:10:31.976Z,2.50
2019-01-16T06:11:31.926Z,2.50
2019-01-16T06:12:31.883Z,2.10
2019-01-16T06:13:31.837Z,1.30
2019-01-16T06:14:31.795Z,2.40
2019-01-16T06:15:31.749Z,2.30
2019-01-16T06:16:31.704Z,1.50
2019-01-16T06:17:31.659Z,2.70
2019-01-16T06:18:31.618Z,1.70
2019-01-16T06:19:31.573Z,1.80
2019-01-16T06:20:31.528Z,3.00
2019-01-16T06:21:31.485Z,3.00
2019-01-16T06:22:31.440Z,1.30
2019-01-16T06:23:31.398Z,2.80
2019-01-16T06:24:31.351Z,2.70
2019-01-16T06:25:31.307Z,1.90
2019-01-16T06:26:31.270Z,2.90
2019-01-16T06:27:32.491Z,1.10
2019-01-16T06:28:31.174Z,1.60
2019-01-16T06:29:31.153Z,1.30
2019-01-16T06:30:31.087Z,1.50
2019-01-16T06:31:31.041Z,2.30
2019-01-16T06:32:30.998Z,1.30
2019-01-16T06:33:30.993Z,1.30
2019-01-16T06:34:30.913Z,1.40
2019-01-16T06:35:30.868Z,2.40
2019-01-16T06:36:30.841Z,1.60
2019-01-16T06:37:30.785Z,1.20
2019-01-16T06:38:30.733Z,1.50
2019-01-16T06:39:30.687Z,1.70
2019-01-16T06:40:30.644Z,2.20
2019-01-16T06:41:30.601Z,1.60
2019-01-16T06:42:30.557Z,2.50
2019-01-16T06:43:30.511Z,3.30
2019-01-16T06:44:30.892Z,1.20
2019-01-16T06:45:30.423Z,2.00
2019-01-16T06:46:30.378Z,1.50
2019-01-16T06:47:30.333Z,1.50
2019-01-16T06:48:30.291Z,1.70
2019-01-16T06:49:30.246Z,2.70
2019-01-16T06:50:30.203Z,3.20
2019-01-16T06:51:30.157Z,1.70
2019-01-16T06:52:30.116Z,2.00
2019-01-16T06:53:30.071Z,1.70
2019-01-16T06:54:30.027Z,1.70
2019-01-16T06:55:29.980Z,3.60
2019-01-16T06:56:29.937Z,1.70
2019-01-16T06:57:29.895Z,1.60
2019-01-16T06:58:29.849Z,1.40
2019-01-16T06:59:29.805Z,1.90
2019-01-16T07:00:29.759Z,2.40
2019-01-16T07:01:29.711Z,2.40
2019-01-16T07:02:29.672Z,3.10
2019-01-16T07:03:29.688Z,2.00
2019-01-16T07:04:29.584Z,3.50
2019-01-16T07:05:29.535Z,1.30
2019-01-16T07:06:29.497Z,1.50
2019-01-16T07:07:29.448Z,1.60
2019-01-16T07:08:29.410Z,3.60
2019-01-16T07:09:29.358Z,3.80
2019-01-16T07:10:29.322Z,1.90
2019-01-16T07:11:29.273Z,1.40
2019-01-16T07:12:29.231Z,2.50
2019-01-16T07:13:29.186Z,2.50
2019-01-16T07:14:29.146Z,2.10
2019-01-16T07:15:29.100Z,3.10
2019-01-16T07:16:29.054Z,2.60
2019-01-16T07:17:29.011Z,2.70
2019-01-16T07:18:28.970Z,2.00
2019-01-16T07:19:28.918Z,2.60
2019-01-16T07:20:28.876Z,1.40
2019-01-16T07:21:28.834Z,2.20
2019-01-16T07:22:28.796Z,1.10
2019-01-16T07:23:28.740Z,2.30
2019-01-16T07:24:28.704Z,1.80
2019-01-16T07:25:28.654Z,2.40
2019-01-16T07:26:28.613Z,2.30
2019-01-16T07:27:28.566Z,1.20
2019-01-16T07:28:28.523Z,2.60
2019-01-16T07:29:28.479Z,2.70
2019-01-16T07:30:28.436Z,1.60
2019-01-16T07:31:28.389Z,2.40
2019-01-16T07:32:28.349Z,1.90
2019-01-16T07:33:28.318Z,1.30
2019-01-16T07:34:28.262Z,3.40
2019-01-16T07:35:28.222Z,4.70
2019-01-16T07:36:28.172Z,4.00
2019-01-16T07:37:28.131Z,2.90
2019-01-16T07:38:28.083Z,2.10
2019-01-16T07:39:28.037Z,9.50
2019-01-16T07:40:28.001Z,5.60
2019-01-16T07:41:27.949Z,6.90
2019-01-16T07:42:27.912Z,2.80
2019-01-16T07:43:27.861Z,3.20
2019-01-16T07:44:27.818Z,5.30
2019-01-16T07:45:27.776Z,5.60
2019-01-16T07:46:27.730Z,6.80
2019-01-16T07:47:27.683Z,5.20
2019-01-16T07:48:27.642Z,7.10
2019-01-16T07:49:27.598Z,6.10
2019-01-16T07:50:27.556Z,2.80
2019-01-16T07:51:27.507Z,2.80
2019-01-16T07:52:27.467Z,4.40
2019-01-16T07:53:27.420Z,5.10
2019-01-16T07:54:27.380Z,5.30
2019-01-16T07:55:27.337Z,2.00
2019-01-16T07:56:27.290Z,2.90
2019-01-16T07:57:27.247Z,2.80
2019-01-16T07:58:27.207Z,3.50
2019-01-16T07:59:27.158Z,2.70
2019-01-16T08:00:27.117Z,1.80
2019-01-16T08:01:27.070Z,5.00
2019-01-16T08:02:27.047Z,5.20
2019-01-16T08:03:26.980Z,5.50
2019-01-16T08:04:26.939Z,5.70
2019-01-16T08:05:26.892Z,5.90
2019-01-16T08:06:26.853Z,4.50
2019-01-16T08:07:26.804Z,5.00
2019-01-16T08:08:26.766Z,7.40
2019-01-16T08:09:26.716Z,6.80
2019-01-16T08:10:26.674Z,9.40
2019-01-16T09:41:46.307Z,8.10
2019-01-16T09:42:46.231Z,5.90
2019-01-16T09:44:39.425Z,8.90
2019-01-16T09:45:39.376Z,9.60
2019-01-16T09:47:32.174Z,10.90
2019-01-16T09:48:32.096Z,16.40
2019-01-16T09:50:24.898Z,8.10
2019-01-16T09:51:24.847Z,7.60
2019-01-16T09:53:18.090Z,12.70
2019-01-16T09:54:18.014Z,11.00
2019-01-16T09:56:11.228Z,7.50
2019-01-16T09:57:11.177Z,9.10
2019-01-16T09:59:04.410Z,4.40
2019-01-16T10:00:04.335Z,10.10
2019-01-16T10:01:58.139Z,11.10
2019-01-16T10:02:58.055Z,9.90
2019-01-16T10:04:51.024Z,7.50
2019-01-16T10:05:50.799Z,9.90
2019-01-16T10:07:43.821Z,5.80
2019-01-16T10:08:43.738Z,6.60
2019-01-16T10:10:36.538Z,6.70
2019-01-16T10:11:36.476Z,6.50
2019-01-16T10:13:29.334Z,4.90
2019-01-16T10:14:29.264Z,4.20
2019-01-16T10:16:22.505Z,6.40
2019-01-16T10:17:22.469Z,5.50
2019-01-16T10:19:15.696Z,4.30
2019-01-16T10:20:15.628Z,7.60
2019-01-16T10:22:09.185Z,5.40
2019-01-16T10:23:09.117Z,4.30
2019-01-16T10:25:01.917Z,5.20
2019-01-16T10:26:01.861Z,5.60
2019-01-16T10:27:55.103Z,4.40
2019-01-16T10:28:55.028Z,11.50
2019-01-16T10:30:48.245Z,5.10
2019-01-16T10:31:48.197Z,7.90
2019-01-16T10:33:41.064Z,8.50
2019-01-16T10:34:40.992Z,10.00
2019-01-16T10:36:33.790Z,5.30
2019-01-16T10:37:33.713Z,5.90
2019-01-16T10:39:26.528Z,6.80
2019-01-16T10:40:26.473Z,3.10
2019-01-16T10:42:19.688Z,6.40
2019-01-16T10:43:19.637Z,5.20
2019-01-16T10:45:12.880Z,7.90
2019-01-16T10:46:12.815Z,3.70
2019-01-16T10:48:06.127Z,4.60
2019-01-16T10:49:06.055Z,5.50
2019-01-16T10:51:03.155Z,6.70
2019-01-16T10:51:59.235Z,4.30
2019-01-16T10:53:52.057Z,4.40
2019-01-16T10:54:51.983Z,3.60
2019-01-16T10:56:45.790Z,4.40
2019-01-16T10:57:45.719Z,5.60
2019-01-16T10:59:38.539Z,4.80
2019-01-16T11:00:38.459Z,3.40
2019-01-16T11:02:31.265Z,8.90
2019-01-16T11:03:31.217Z,7.70
2019-01-16T11:05:24.035Z,5.70
2019-01-16T11:06:23.968Z,5.50
2019-01-16T11:08:17.330Z,8.60
2019-01-16T11:09:17.279Z,9.30
2019-01-16T11:11:16.076Z,8.70
2019-01-16T11:12:10.452Z,9.40
2019-01-16T11:14:03.747Z,8.30
2019-01-16T11:15:03.681Z,18.50
2019-01-16T11:16:57.001Z,8.70
2019-01-16T11:17:56.865Z,17.40
2019-01-16T11:19:50.166Z,16.10
2019-01-16T11:20:50.099Z,15.50
2019-01-16T11:22:43.339Z,21.10
2019-01-16T11:23:43.289Z,17.80
2019-01-16T11:25:36.572Z,13.10
2019-01-16T11:26:36.505Z,8.30
2019-01-16T11:28:29.743Z,10.60
2019-01-16T11:29:29.674Z,10.60
2019-01-16T11:31:22.468Z,9.90
2019-01-16T11:32:22.441Z,8.40
2019-01-16T11:34:15.238Z,7.10
2019-01-16T11:35:15.190Z,17.20
2019-01-16T11:37:08.428Z,10.40
2019-01-16T11:38:08.376Z,8.90
2019-01-16T11:40:04.919Z,6.70
2019-01-16T11:41:01.623Z,4.30
2019-01-16T11:42:54.875Z,9.10
2019-01-16T11:43:54.822Z,7.60
2019-01-16T11:45:48.100Z,20.60
2019-01-16T11:46:48.029Z,18.10
2019-01-16T11:48:40.869Z,17.60
2019-01-16T11:49:40.792Z,11.90
2019-01-16T11:51:34.040Z,16.70
2019-01-16T11:52:33.996Z,14.40
2019-01-16T11:54:27.273Z,13.80
2019-01-16T11:55:27.201Z,16.50
2019-01-16T11:57:20.453Z,14.30
2019-01-16T11:58:20.407Z,17.00
2019-01-16T12:00:13.666Z,13.00
2019-01-16T12:01:13.623Z,12.60
2019-01-16T12:03:06.887Z,12.40
2019-01-16T12:04:06.854Z,14.10
2019-01-16T12:06:00.084Z,10.40
2019-01-16T12:07:00.012Z,12.20
2019-01-16T12:08:52.818Z,8.70
2019-01-16T12:09:52.784Z,15.00
2019-01-16T12:11:46.028Z,9.80
2019-01-16T12:12:45.960Z,9.80
2019-01-16T12:14:39.210Z,12.10
2019-01-16T12:15:39.138Z,18.00
2019-01-16T12:17:32.393Z,12.80
2019-01-16T12:18:32.348Z,12.10
2019-01-16T12:20:25.618Z,13.70
2019-01-16T12:21:26.589Z,10.90
2019-01-16T12:23:18.352Z,8.40
2019-01-16T12:24:18.349Z,11.70
2019-01-16T12:26:11.574Z,6.60
2019-01-16T12:27:11.511Z,9.20
2019-01-16T12:29:04.735Z,7.00
2019-01-16T12:30:04.690Z,5.30
2019-01-16T12:31:57.956Z,7.90
2019-01-16T12:32:57.879Z,10.30
2019-01-16T12:34:51.151Z,13.60
2019-01-16T12:35:51.098Z,6.00
2019-01-16T12:37:44.328Z,6.00
2019-01-16T12:38:44.285Z,8.30
2019-01-16T12:40:37.539Z,9.30
2019-01-16T12:41:37.479Z,8.30
2019-01-16T12:43:30.278Z,11.30
2019-01-16T12:44:30.240Z,8.80
2019-01-16T12:46:23.050Z,11.10
2019-01-16T12:47:22.984Z,5.70
2019-01-16T12:49:16.224Z,6.80
2019-01-16T12:50:16.173Z,8.00
2019-01-16T12:52:09.439Z,6.70
2019-01-16T12:53:09.372Z,7.10
2019-01-16T12:55:02.194Z,6.70
2019-01-16T12:56:02.135Z,6.90
2019-01-16T12:57:55.368Z,9.20
2019-01-16T12:58:55.337Z,5.60
2019-01-16T13:00:48.603Z,7.30
2019-01-16T13:01:48.508Z,8.90
2019-01-16T13:03:42.018Z,9.40
2019-01-16T13:04:41.710Z,7.90
2019-01-16T13:06:34.980Z,9.10
2019-01-16T13:07:34.929Z,6.90
2019-01-16T13:09:27.719Z,9.70
2019-01-16T13:10:27.668Z,10.90
2019-01-16T13:12:20.495Z,6.80
2019-01-16T13:13:20.413Z,11.40
2019-01-16T13:15:13.217Z,7.00
2019-01-16T13:16:13.172Z,8.90
2019-01-16T13:18:06.434Z,7.10
2019-01-16T13:19:06.363Z,8.30
2019-01-16T13:20:59.630Z,7.80
2019-01-16T13:21:59.565Z,10.00
2019-01-16T13:23:52.802Z,5.70
2019-01-16T13:24:52.755Z,5.80
2019-01-16T13:26:46.098Z,7.00
2019-01-16T13:27:46.010Z,8.00
2019-01-16T13:29:38.812Z,7.30
2019-01-16T13:30:38.764Z,7.40
2019-01-16T13:32:31.585Z,7.10
2019-01-16T13:33:31.512Z,7.10
2019-01-16T13:35:24.327Z,5.80
2019-01-16T13:36:24.265Z,6.40
2019-01-16T13:38:17.080Z,5.90
2019-01-16T13:39:17.010Z,5.30
2019-01-16T13:41:09.832Z,5.60
2019-01-16T13:42:09.760Z,5.90
2019-01-16T13:44:03.015Z,6.20
2019-01-16T13:45:02.969Z,6.90
2019-01-16T13:46:56.247Z,5.90
2019-01-16T13:47:56.173Z,7.60
2019-01-16T13:49:49.500Z,5.70
2019-01-16T13:50:49.391Z,7.80
2019-01-16T13:52:42.212Z,4.60
2019-01-16T13:53:42.141Z,5.60
2019-01-16T13:55:34.954Z,4.70
2019-01-16T13:56:34.903Z,4.40
2019-01-16T13:58:27.722Z,6.90
2019-01-16T13:59:27.648Z,6.40
2019-01-16T14:01:20.470Z,5.50
2019-01-16T14:02:20.403Z,5.20
2019-01-16T14:04:13.204Z,5.10
2019-01-16T14:05:13.151Z,3.20
2019-01-16T14:07:06.179Z,6.40
2019-01-16T14:08:06.112Z,4.60
2019-01-16T14:09:59.384Z,4.00
2019-01-16T14:10:59.324Z,7.10
2019-01-16T14:12:52.616Z,4.20
2019-01-16T14:13:52.552Z,8.10
2019-01-16T14:15:45.820Z,7.70
2019-01-16T14:16:45.762Z,6.60
2019-01-16T14:18:39.054Z,6.20
2019-01-16T14:19:38.984Z,5.60
2019-01-16T14:21:31.795Z,5.90
2019-01-16T14:22:31.744Z,5.50
2019-01-16T14:24:25.553Z,5.40
2019-01-16T14:25:25.484Z,6.20
2019-01-16T14:27:18.332Z,5.30
2019-01-16T14:28:18.249Z,6.40
2019-01-16T14:30:11.046Z,5.10
2019-01-16T14:31:10.997Z,5.90
2019-01-16T14:33:03.815Z,6.80
2019-01-16T14:34:03.742Z,5.10
2019-01-16T14:35:57.003Z,5.30
2019-01-16T14:36:56.952Z,5.30
2019-01-16T14:38:50.210Z,5.60
2019-01-16T14:39:50.143Z,4.40
2019-01-16T14:41:43.397Z,7.20
2019-01-16T14:42:43.349Z,5.70
2019-01-16T14:44:36.642Z,9.00
2019-01-16T14:45:36.570Z,6.30
2019-01-16T14:47:29.893Z,5.20
2019-01-16T14:48:29.821Z,5.10
2019-01-16T14:50:23.063Z,6.40
2019-01-16T14:51:23.013Z,7.50
2019-01-16T14:53:15.823Z,6.60
2019-01-16T14:54:15.759Z,5.20
2019-01-16T14:56:08.985Z,5.70
2019-01-16T14:57:08.943Z,7.10
2019-01-16T14:59:01.764Z,6.70
2019-01-16T15:00:01.707Z,6.70
2019-01-16T15:01:01.653Z,5.70
2019-01-16T15:02:01.610Z,5.70
2019-01-16T15:03:01.562Z,6.30
2019-01-16T15:04:01.519Z,7.30
2019-01-16T15:05:01.470Z,6.20
2019-01-16T15:06:01.426Z,4.40
2019-01-16T15:07:01.382Z,5.60
2019-01-16T15:08:01.335Z,5.60
2019-01-16T15:09:01.289Z,6.60
2019-01-16T15:10:01.252Z,8.50
2019-01-16T15:11:01.199Z,4.70
2019-01-16T15:12:01.153Z,4.10
2019-01-16T15:13:01.109Z,5.50
2019-01-16T15:14:01.063Z,5.50
2019-01-16T15:15:01.018Z,3.30
2019-01-16T15:16:00.973Z,4.90
2019-01-16T15:17:00.924Z,6.00
2019-01-16T15:18:00.881Z,5.80
2019-01-16T15:19:00.835Z,4.60
2019-01-16T15:20:00.789Z,5.10
2019-01-16T15:21:00.746Z,9.00
2019-01-16T15:22:06.144Z,14.30
2019-01-16T15:23:00.659Z,18.50
2019-01-16T15:24:00.607Z,13.40
2019-01-16T15:25:00.562Z,21.00
2019-01-16T15:26:00.518Z,27.40
2019-01-16T15:27:00.468Z,14.70
2019-01-16T15:28:00.422Z,14.90
2019-01-16T15:29:00.380Z,15.10
2019-01-16T15:30:00.336Z,15.40
2019-01-16T15:31:00.289Z,14.10
2019-01-16T15:32:00.244Z,12.00
2019-01-16T15:33:00.198Z,14.50
2019-01-16T15:34:00.153Z,11.90
2019-01-16T15:35:00.108Z,10.10
2019-01-16T15:36:00.058Z,11.50
2019-01-16T15:37:00.019Z,10.80
2019-01-16T15:37:59.972Z,9.20
2019-01-16T15:38:59.928Z,8.50
2019-01-16T15:39:59.880Z,12.50
2019-01-16T15:40:59.895Z,8.40
2019-01-16T15:41:59.792Z,14.70
2019-01-16T15:42:59.766Z,8.30
2019-01-16T15:43:59.702Z,16.30
2019-01-16T15:44:59.660Z,8.80
2019-01-16T15:45:59.614Z,8.80
2019-01-16T15:46:59.582Z,7.80
2019-01-16T15:47:59.522Z,11.00
2019-01-16T15:48:59.479Z,10.70
2019-01-16T15:49:59.431Z,7.80
2019-01-16T15:50:59.389Z,9.40
2019-01-16T15:51:59.343Z,8.60
2019-01-16T15:52:59.298Z,9.90
2019-01-16T15:53:59.251Z,10.90
2019-01-16T15:54:59.209Z,11.70
2019-01-16T15:55:59.161Z,7.10
2019-01-16T15:56:59.120Z,7.20
2019-01-16T15:57:59.075Z,6.40
2019-01-16T15:58:59.030Z,9.90
2019-01-16T15:59:58.986Z,11.20
2019-01-16T16:00:58.940Z,7.60
2019-01-16T16:01:58.898Z,12.30
2019-01-16T16:02:58.852Z,14.30
2019-01-16T16:03:58.809Z,12.70
2019-01-16T16:04:58.759Z,9.70
2019-01-16T16:05:58.719Z,8.10
2019-01-16T16:06:58.674Z,9.00
2019-01-16T16:07:59.009Z,8.50
2019-01-16T16:08:58.595Z,6.00
2019-01-16T16:09:58.540Z,10.70
2019-01-16T16:10:58.496Z,7.40
2019-01-16T16:11:58.451Z,7.50
2019-01-16T16:13:00.189Z,7.40
2019-01-16T16:14:00.215Z,6.50
2019-01-16T16:14:59.727Z,8.30
2019-01-16T16:15:59.149Z,8.90
2019-01-16T16:16:58.232Z,8.40
2019-01-16T16:17:58.188Z,8.80
2019-01-16T16:18:58.171Z,13.60
2019-01-16T16:19:58.094Z,13.60
2019-01-16T16:20:58.049Z,8.30
2019-01-16T16:21:58.007Z,8.20
2019-01-16T16:22:57.962Z,9.50
2019-01-16T16:23:57.916Z,11.60
2019-01-16T16:24:57.882Z,7.00
2019-01-16T16:25:57.830Z,14.10
2019-01-16T16:26:57.784Z,11.20
2019-01-16T16:27:57.739Z,13.10
2019-01-16T16:28:57.695Z,9.30
2019-01-16T16:29:57.651Z,15.10
2019-01-16T16:30:57.612Z,7.60
2019-01-16T16:31:57.561Z,10.30
2019-01-16T16:32:57.548Z,10.60
2019-01-16T16:33:57.473Z,11.00
2019-01-16T16:34:57.430Z,10.70
2019-01-16T16:35:57.386Z,13.50
2019-01-16T16:36:57.343Z,8.70
2019-01-16T16:37:57.296Z,7.30
2019-01-16T16:38:57.253Z,7.70
2019-01-16T16:39:57.208Z,13.80
2019-01-16T16:40:57.164Z,9.90
2019-01-16T16:41:57.119Z,11.80
2019-01-16T16:42:57.078Z,11.50
2019-01-16T16:43:57.031Z,9.20
2019-01-16T16:44:56.987Z,10.30
2019-01-16T16:45:56.943Z,11.50
2019-01-16T16:46:56.899Z,11.70
2019-01-16T16:47:56.854Z,14.10
2019-01-16T16:48:56.809Z,15.50
2019-01-16T16:49:56.769Z,11.30
2019-01-16T16:50:56.722Z,11.50
2019-01-16T16:51:56.679Z,15.70
2019-01-16T16:52:56.632Z,7.00
2019-01-16T16:53:56.591Z,11.20
2019-01-16T16:54:56.546Z,9.20
2019-01-16T16:55:56.503Z,12.20
2019-01-16T16:56:56.454Z,12.20
2019-01-16T16:57:56.412Z,12.50
2019-01-16T16:58:57.649Z,12.40
2019-01-16T16:59:56.324Z,9.10
2019-01-16T17:00:56.284Z,9.50
2019-01-16T17:01:56.235Z,15.60
2019-01-16T17:02:56.192Z,11.30
2019-01-16T17:03:56.148Z,8.10
2019-01-16T17:04:56.103Z,11.30
2019-01-16T17:05:56.059Z,5.90
2019-01-16T17:06:56.049Z,14.20
2019-01-16T17:07:55.972Z,7.30
2019-01-16T17:08:55.926Z,8.80
2019-01-16T17:09:55.884Z,7.60
2019-01-16T17:10:55.834Z,7.00
2019-01-16T17:11:55.795Z,11.80
2019-01-16T17:12:55.749Z,9.00
2019-01-16T17:13:55.708Z,10.10
2019-01-16T17:14:55.663Z,7.30
2019-01-16T17:15:55.618Z,7.20
2019-01-16T17:16:55.577Z,11.00
2019-01-16T17:17:55.530Z,7.40
2019-01-16T17:18:55.486Z,10.80
2019-01-16T17:19:55.443Z,9.90
2019-01-16T17:20:55.399Z,7.90
2019-01-16T17:21:55.354Z,6.10
2019-01-16T17:22:55.309Z,10.30
2019-01-16T17:23:55.265Z,6.50
2019-01-16T17:24:55.222Z,5.70
2019-01-16T17:25:55.179Z,6.70
2019-01-16T17:26:55.130Z,8.30
2019-01-16T17:27:55.088Z,6.00
2019-01-16T17:28:55.045Z,11.40
2019-01-16T17:29:55.040Z,8.70
2019-01-16T17:30:54.957Z,6.30